< < Back
Terminal Aerodrome Forecast


Current Version              Previous Versions:   1  2  3  4  5  6  7  8  9  

Terminal Aerodrome Forecast

108
FTUS44 KBMX 031700
TAFBHM
TAF
KBHM 031740Z 0318/0418 15003KT 3SM -RA BR SCT004 BKN009
      TEMPO 0318/0320 2SM BR BKN004
     FM032200 17005KT 5SM BR OVC015
     FM040100 18006KT 4SM BR OVC003=



Latest METAR

714
SAUS70 KWBC 040400 RRE
MTRBHM
METAR KBHM 040353Z 19011KT 10SM CLR 18/16 A3004 RMK AO2 SLP166
T01780156


USA.gov is the U.S. government's official web portal to all federal, state and local government web resources and services.